• Join FlightAware (Why Join?)
  • Login
  • US Flag 
09:40PM EST


 

Airport Tracker/Info


-or-


 

Live Flight TrackerFlight Track Log ✈ CRQ907 ✈ 05-May-2013 ✈ CZEM - CSU2

Flight Track Log - Related Links

Times and Time Zones

All times are in EDT time to prevent confusion due to time zone crossing. See the CRQ907 flight status page for this flight to view local times or setup timezone preferences in your user account.

Time Position Orientation Groundspeed Altitude Reporting Facility
EDT Latitude Longitude Course Direction KTS MPH feet Rate Location/Type
11:38AM 52.8818 -78.7696 347° North  Level FlightAware Approximate
11:39AM 52.9371 -78.7916 347° North  Level FlightAware Approximate
11:40AM 52.9925 -78.8137 347° North  Level FlightAware Approximate
11:41AM 53.0491 -78.8223 356° North  Level FlightAware Approximate
11:42AM 53.1059 -78.8288 356° North  Level FlightAware Approximate
11:43AM 53.1628 -78.8353 356° North  Level FlightAware Approximate
11:44AM 53.2196 -78.8419 356° North  Level FlightAware Approximate
11:45AM 53.2764 -78.8484 356° North  Level FlightAware Approximate
11:46AM 53.3332 -78.8550 356° North  Level FlightAware Approximate
11:47AM 53.3900 -78.8616 356° North  Level FlightAware Approximate
11:48AM 53.4468 -78.8686 355° North  Level FlightAware Approximate
11:49AM 53.5035 -78.8767 355° North  Level FlightAware Approximate
11:50AM 53.5603 -78.8833 North  Level FlightAware Approximate
11:51AM 53.6172 -78.8833 North  Level FlightAware Approximate
11:52AM 53.6739 -78.8914 353° North  Level FlightAware Approximate
11:53AM 53.7304 -78.9027 353° North  Level FlightAware Approximate
11:54AM 53.7870 -78.9141 353° North  Level FlightAware Approximate
11:55AM 53.8000 -78.9167 353° North  Level FlightAware Approximate
11:56AM 53.8056 -78.9169 353° North  Level Estimated
11:57AM 53.8000 -78.9167 353° North  Level FlightAware Approximate
11:58AM 53.8056 -78.9169 353° North  Level Estimated
11:59AM 53.8000 -78.9167 353° North  Level FlightAware Approximate
12:00PM 53.8056 -78.9169 353° North  Level Estimated
12:01PM 53.8000 -78.9167 353° North  Level FlightAware Approximate
12:02PM 53.8056 -78.9169 353° North  Level Estimated
12:03PM 53.8000 -78.9167 353° North  Level FlightAware Approximate
12:04PM 53.8056 -78.9169 353° North  Level Estimated
12:05PM 53.8000 -78.9167 353° North  Level FlightAware Approximate
12:06PM 53.8056 -78.9169 353° North  Level Estimated
12:07PM 53.8000 -78.9167 353° North  Level FlightAware Approximate
12:08PM 53.8056 -78.9169 353° North  Level Estimated
12:09PM 53.8000 -78.9167 353° North  Level FlightAware Approximate
12:10PM 53.8056 -78.9169 353° North  Level Estimated